createdAt,value
2023-03-30T00:01:10.656Z,73.17
2023-03-30T00:03:40.000Z,73.91
2023-03-30T00:06:08.948Z,73.46
2023-03-30T00:08:36.721Z,73.66
2023-03-30T00:11:06.716Z,73.94
2023-03-30T00:13:35.793Z,74.18
2023-03-30T00:16:03.848Z,75.18
2023-03-30T00:18:31.348Z,76.99
2023-03-30T00:21:00.115Z,75.96
2023-03-30T00:23:27.540Z,75.72
2023-03-30T00:25:55.374Z,77.13
2023-03-30T00:28:22.891Z,77.53
2023-03-30T00:30:51.063Z,79.52
2023-03-30T00:33:18.590Z,81.05
2023-03-30T00:35:52.964Z,79.91
2023-03-30T00:38:22.154Z,79.69
2023-03-30T00:40:52.652Z,80.22
2023-03-30T00:43:20.938Z,79.97
2023-03-30T00:45:48.958Z,79.51
2023-03-30T00:48:22.109Z,77.23
2023-03-30T00:50:54.575Z,77.08
2023-03-30T00:53:26.269Z,78.33
2023-03-30T00:55:55.231Z,78.68
2023-03-30T00:58:24.943Z,78.09
2023-03-30T01:00:53.153Z,84.53
2023-03-30T01:03:25.548Z,87.53
2023-03-30T01:05:53.700Z,83.27
2023-03-30T01:08:27.164Z,85.93
2023-03-30T01:10:56.332Z,84.05
2023-03-30T01:13:23.885Z,80.63
2023-03-30T01:16:02.220Z,81.76
2023-03-30T01:18:47.704Z,80.45
2023-03-30T01:22:00.305Z,79.96
2023-03-30T01:25:03.014Z,81.72
2023-03-30T01:28:09.716Z,81.69
2023-03-30T01:31:08.255Z,82.46
2023-03-30T01:33:58.613Z,83.94
2023-03-30T01:36:54.099Z,82.04
2023-03-30T01:39:33.379Z,80.41
2023-03-30T01:42:10.388Z,79.68
2023-03-30T01:44:44.982Z,79.54
2023-03-30T01:47:20.080Z,79.73
2023-03-30T01:49:57.467Z,80.63
2023-03-30T01:52:31.755Z,80.14
2023-03-30T01:55:04.654Z,80.67
2023-03-30T01:57:36.947Z,80.20
2023-03-30T02:00:13.789Z,79.13
2023-03-30T02:02:44.814Z,80.28
2023-03-30T02:05:17.866Z,80.32
2023-03-30T02:07:48.778Z,80.05
2023-03-30T02:10:20.446Z,79.08
2023-03-30T02:12:48.377Z,81.10
2023-03-30T02:15:17.617Z,81.14
2023-03-30T02:17:47.561Z,80.54
2023-03-30T02:20:17.527Z,79.64
2023-03-30T02:22:45.787Z,79.77
2023-03-30T02:25:13.943Z,81.05
2023-03-30T02:27:42.914Z,80.28
2023-03-30T02:30:11.238Z,79.49
2023-03-30T02:32:43.200Z,78.93
2023-03-30T02:35:48.013Z,79.45
2023-03-30T02:38:34.842Z,79.88
2023-03-30T02:41:12.695Z,81.66
2023-03-30T02:43:50.948Z,79.98
2023-03-30T02:46:32.373Z,78.93
2023-03-30T02:49:14.097Z,79.40
2023-03-30T02:51:46.999Z,79.00
2023-03-30T02:54:28.522Z,78.84
2023-03-30T02:57:05.180Z,78.84
2023-03-30T02:59:41.347Z,78.85
2023-03-30T03:02:13.082Z,79.39
2023-03-30T03:04:43.717Z,78.60
2023-03-30T03:07:12.116Z,80.24
2023-03-30T03:09:39.572Z,79.38
2023-03-30T03:12:07.576Z,79.78
2023-03-30T03:14:36.403Z,79.21
2023-03-30T03:17:05.127Z,78.81
2023-03-30T03:19:32.952Z,79.00
2023-03-30T03:22:00.370Z,78.99
2023-03-30T03:24:27.970Z,79.57
2023-03-30T03:26:55.602Z,80.17
2023-03-30T03:29:23.080Z,79.84
2023-03-30T03:31:51.942Z,79.21
2023-03-30T03:34:20.205Z,78.99
2023-03-30T03:36:52.214Z,79.85
2023-03-30T03:39:19.873Z,79.74
2023-03-30T03:41:47.277Z,81.09
2023-03-30T03:44:14.839Z,80.01
2023-03-30T03:46:42.284Z,80.23
2023-03-30T03:49:11.846Z,80.85
2023-03-30T03:51:39.541Z,81.00
2023-03-30T03:54:08.049Z,81.51
2023-03-30T03:56:35.490Z,79.95
2023-03-30T03:59:04.706Z,81.91
2023-03-30T04:01:32.942Z,80.23
2023-03-30T04:04:00.539Z,82.19
2023-03-30T04:06:29.597Z,80.84
2023-03-30T04:08:57.223Z,80.29
2023-03-30T04:11:24.646Z,80.08
2023-03-30T04:13:52.084Z,79.78
2023-03-30T04:16:19.570Z,81.45
2023-03-30T04:18:47.014Z,80.15
2023-03-30T04:21:17.601Z,80.51
2023-03-30T04:23:49.066Z,79.58
2023-03-30T04:26:17.711Z,78.36
2023-03-30T04:28:46.808Z,79.79
2023-03-30T04:31:14.637Z,80.31
2023-03-30T04:33:52.103Z,81.18
2023-03-30T04:36:20.214Z,81.23
2023-03-30T04:38:58.429Z,80.28
2023-03-30T04:41:33.347Z,80.82
2023-03-30T04:44:03.157Z,81.41
2023-03-30T04:46:30.999Z,81.76
2023-03-30T04:48:58.626Z,80.99
2023-03-30T04:51:26.168Z,81.50
2023-03-30T04:53:55.453Z,79.78
2023-03-30T04:56:22.875Z,80.55
2023-03-30T04:58:50.328Z,80.81
2023-03-30T05:01:17.764Z,80.52
2023-03-30T05:03:45.534Z,79.88
2023-03-30T05:06:13.641Z,79.25
2023-03-30T05:08:41.895Z,80.54
2023-03-30T05:11:11.719Z,81.76
2023-03-30T05:13:40.487Z,81.53
2023-03-30T05:16:09.135Z,79.47
2023-03-30T05:18:38.755Z,80.03
2023-03-30T05:21:06.713Z,80.62
2023-03-30T05:23:34.276Z,84.97
2023-03-30T05:26:03.802Z,83.54
2023-03-30T05:28:32.671Z,80.81
2023-03-30T05:31:00.680Z,79.79
2023-03-30T05:33:28.192Z,80.08
2023-03-30T05:35:55.735Z,80.00
2023-03-30T05:38:23.267Z,78.81
2023-03-30T05:40:53.424Z,78.34
2023-03-30T05:43:21.085Z,78.45
2023-03-30T05:45:49.829Z,79.16
2023-03-30T05:48:17.481Z,79.48
2023-03-30T05:50:44.943Z,79.94
2023-03-30T05:53:12.339Z,80.97
2023-03-30T05:55:39.754Z,80.16
2023-03-30T05:58:08.294Z,81.10
2023-03-30T06:00:37.238Z,79.15
2023-03-30T06:03:06.112Z,79.92
2023-03-30T06:05:35.255Z,79.79
2023-03-30T06:08:04.046Z,79.35
2023-03-30T06:10:31.634Z,80.88
2023-03-30T06:12:59.107Z,79.04
2023-03-30T06:15:27.156Z,78.81
2023-03-30T06:17:55.122Z,77.79
2023-03-30T06:20:26.073Z,77.35
2023-03-30T06:22:53.676Z,76.73
2023-03-30T06:25:23.452Z,78.46
2023-03-30T06:27:50.890Z,76.57
2023-03-30T06:30:18.345Z,76.84
2023-03-30T06:32:45.798Z,75.95
2023-03-30T06:35:15.802Z,78.09
2023-03-30T06:37:44.742Z,75.56
2023-03-30T06:40:13.962Z,76.35
2023-03-30T06:42:44.021Z,75.97
2023-03-30T06:45:12.581Z,75.87
2023-03-30T06:47:41.356Z,74.97
2023-03-30T06:50:09.908Z,76.91
2023-03-30T06:52:38.723Z,76.44
2023-03-30T06:55:09.434Z,76.49
2023-03-30T06:57:37.139Z,77.78
2023-03-30T07:00:10.204Z,74.89
2023-03-30T07:02:37.759Z,74.92
2023-03-30T07:05:06.884Z,73.83
2023-03-30T07:07:34.658Z,73.18
2023-03-30T07:10:02.544Z,75.87
2023-03-30T07:12:31.342Z,75.49
2023-03-30T07:14:58.733Z,74.06
2023-03-30T07:17:27.610Z,72.54
2023-03-30T07:19:55.694Z,72.39
2023-03-30T07:22:23.320Z,72.00
2023-03-30T07:24:50.818Z,72.42
2023-03-30T07:27:18.425Z,71.90
2023-03-30T07:29:47.351Z,71.99
2023-03-30T07:32:14.832Z,71.62
2023-03-30T07:34:42.534Z,72.11
2023-03-30T07:37:10.145Z,71.52
2023-03-30T07:39:37.656Z,71.57
2023-03-30T07:42:05.779Z,71.86
2023-03-30T07:44:33.227Z,70.38
2023-03-30T07:47:04.265Z,70.24
2023-03-30T07:49:32.058Z,69.64
2023-03-30T07:52:00.052Z,68.75
2023-03-30T07:54:27.607Z,68.61
2023-03-30T07:56:55.052Z,68.63
2023-03-30T07:59:24.063Z,68.63
2023-03-30T08:01:52.200Z,74.03
2023-03-30T08:04:22.356Z,70.15
2023-03-30T08:06:52.849Z,69.36
2023-03-30T08:09:26.604Z,70.06
2023-03-30T08:11:54.229Z,69.59
2023-03-30T08:14:23.526Z,69.77
2023-03-30T08:16:50.975Z,68.76
2023-03-30T08:19:18.382Z,68.49
2023-03-30T08:21:47.257Z,68.15
2023-03-30T08:24:14.711Z,67.09
2023-03-30T08:26:42.277Z,66.63
2023-03-30T08:29:10.116Z,67.03
2023-03-30T08:31:37.794Z,67.84
2023-03-30T08:34:06.584Z,67.20
2023-03-30T08:36:34.463Z,66.27
2023-03-30T08:39:04.816Z,67.06
2023-03-30T08:41:49.405Z,65.86
2023-03-30T08:44:29.571Z,66.33
2023-03-30T08:46:57.169Z,65.55
2023-03-30T08:49:26.446Z,66.57
2023-03-30T08:51:55.709Z,66.30
2023-03-30T08:54:25.906Z,65.92
2023-03-30T08:57:01.629Z,64.15
2023-03-30T08:59:37.808Z,66.72
2023-03-30T09:02:16.399Z,64.68
2023-03-30T09:04:58.535Z,64.28
2023-03-30T09:07:28.622Z,62.90
2023-03-30T09:09:58.395Z,62.68
2023-03-30T09:12:37.401Z,62.90
2023-03-30T09:15:09.525Z,67.28
2023-03-30T09:17:41.564Z,63.06
2023-03-30T09:20:14.648Z,63.46
2023-03-30T09:22:44.918Z,63.23
2023-03-30T09:25:20.089Z,64.30
2023-03-30T09:27:59.543Z,61.27
2023-03-30T09:30:33.527Z,62.40
2023-03-30T09:33:07.510Z,60.20
2023-03-30T09:35:41.652Z,62.89
2023-03-30T09:38:12.174Z,61.54
2023-03-30T09:41:07.231Z,62.58
2023-03-30T09:43:41.889Z,63.83
2023-03-30T09:46:09.553Z,61.55
2023-03-30T09:48:42.001Z,62.25
2023-03-30T09:51:21.568Z,61.28
2023-03-30T09:53:51.355Z,60.39
2023-03-30T09:56:26.368Z,63.09
2023-03-30T09:58:53.831Z,62.62
2023-03-30T10:01:22.007Z,62.32
2023-03-30T10:04:08.850Z,61.29
2023-03-30T10:06:39.924Z,60.00
2023-03-30T10:09:12.825Z,60.17
2023-03-30T10:11:44.296Z,62.37
2023-03-30T10:14:23.857Z,61.52
2023-03-30T10:16:51.309Z,61.74
2023-03-30T10:19:21.665Z,63.45
2023-03-30T10:21:49.568Z,62.21
2023-03-30T10:24:23.058Z,61.85
2023-03-30T10:26:55.436Z,62.67
2023-03-30T10:29:24.625Z,62.05
2023-03-30T10:31:58.392Z,62.09
2023-03-30T10:34:36.482Z,64.06
2023-03-30T10:37:07.830Z,64.25
2023-03-30T10:39:37.086Z,63.73
2023-03-30T10:42:07.915Z,62.73
2023-03-30T10:44:37.821Z,62.43
2023-03-30T10:47:20.758Z,61.46
2023-03-30T10:49:56.985Z,61.80
2023-03-30T10:52:33.996Z,62.48
2023-03-30T10:55:07.732Z,61.03
2023-03-30T10:57:48.793Z,62.73
2023-03-30T11:00:29.758Z,62.49
2023-03-30T11:03:04.002Z,61.46
2023-03-30T11:05:35.623Z,62.77
2023-03-30T11:08:06.072Z,60.27
2023-03-30T11:10:37.526Z,61.24
2023-03-30T11:13:08.240Z,62.71
2023-03-30T11:15:41.527Z,63.93
2023-03-30T11:18:17.386Z,63.60
2023-03-30T11:20:50.287Z,61.46
2023-03-30T11:23:27.629Z,63.32
2023-03-30T11:26:01.506Z,62.58
2023-03-30T11:29:07.971Z,64.00
2023-03-30T11:31:49.769Z,63.49
2023-03-30T11:34:27.770Z,63.14
2023-03-30T11:37:02.199Z,62.99
2023-03-30T11:39:32.890Z,62.37
2023-03-30T11:42:08.181Z,62.32
2023-03-30T11:44:36.116Z,63.30
2023-03-30T11:47:20.233Z,64.12
2023-03-30T11:50:02.899Z,63.42
2023-03-30T11:52:35.779Z,63.71
2023-03-30T11:55:25.838Z,64.69
2023-03-30T11:58:06.615Z,65.99
2023-03-30T12:00:50.524Z,63.93
2023-03-30T12:03:31.040Z,63.42
2023-03-30T12:06:07.385Z,64.00
2023-03-30T12:08:48.432Z,64.14
2023-03-30T12:11:26.705Z,63.92
2023-03-30T12:13:54.909Z,63.20
2023-03-30T12:16:28.542Z,64.01
2023-03-30T12:19:10.264Z,64.97
2023-03-30T12:21:43.742Z,65.60
2023-03-30T12:24:18.696Z,65.00
2023-03-30T12:26:58.214Z,64.41
2023-03-30T12:30:00.950Z,64.19
2023-03-30T12:32:31.893Z,62.51
2023-03-30T12:35:00.673Z,61.90
2023-03-30T12:37:33.361Z,63.09
2023-03-30T12:40:06.850Z,63.58
2023-03-30T12:42:35.857Z,61.98
2023-03-30T12:45:32.083Z,62.25
2023-03-30T12:48:14.242Z,61.43
2023-03-30T12:50:53.000Z,59.79
2023-03-30T12:53:51.746Z,61.03
2023-03-30T12:56:31.471Z,60.32
2023-03-30T12:59:24.004Z,60.30
2023-03-30T13:02:02.296Z,59.29
2023-03-30T13:04:35.123Z,58.74
2023-03-30T13:07:06.062Z,60.05
2023-03-30T13:09:51.246Z,59.99
2023-03-30T13:12:32.765Z,60.48
2023-03-30T13:15:20.532Z,59.41
2023-03-30T13:18:00.245Z,59.64
2023-03-30T13:20:33.995Z,59.83
2023-03-30T13:23:25.890Z,59.95
2023-03-30T13:26:03.516Z,61.73
2023-03-30T13:28:56.905Z,62.21
2023-03-30T13:31:49.176Z,62.37
2023-03-30T13:34:30.359Z,62.66
2023-03-30T13:37:05.734Z,62.69
2023-03-30T13:39:42.405Z,63.54
2023-03-30T13:42:28.352Z,63.21
2023-03-30T13:45:02.556Z,62.79
2023-03-30T13:47:45.912Z,70.10
2023-03-30T13:50:21.506Z,75.66
2023-03-30T13:52:51.486Z,79.41
2023-03-30T13:55:27.408Z,85.97
2023-03-30T13:58:01.007Z,87.63
2023-03-30T14:00:40.050Z,92.02
2023-03-30T14:03:31.651Z,88.11
2023-03-30T14:06:03.574Z,89.98
2023-03-30T14:08:35.465Z,90.78
2023-03-30T14:11:08.902Z,93.96
2023-03-30T14:13:38.138Z,95.15
2023-03-30T14:16:07.408Z,95.85
2023-03-30T14:18:35.958Z,94.94
2023-03-30T14:21:05.981Z,93.21
2023-03-30T14:23:38.216Z,92.85
2023-03-30T14:26:14.565Z,90.42
2023-03-30T14:28:42.595Z,90.85
2023-03-30T14:31:17.226Z,88.11
2023-03-30T14:33:45.614Z,84.55
2023-03-30T14:36:16.316Z,84.55
2023-03-30T14:38:47.705Z,84.51
2023-03-30T14:41:22.752Z,83.08
2023-03-30T14:43:56.079Z,83.50
2023-03-30T14:46:25.765Z,84.16
2023-03-30T14:48:53.600Z,91.39
2023-03-30T14:51:25.536Z,88.62
2023-03-30T14:53:54.592Z,87.30
2023-03-30T14:56:24.307Z,90.32
2023-03-30T14:58:53.157Z,89.35
2023-03-30T15:01:30.784Z,90.02
2023-03-30T15:04:08.226Z,88.79
2023-03-30T15:06:37.657Z,88.32
2023-03-30T15:09:10.491Z,87.64
2023-03-30T15:11:40.772Z,86.08
2023-03-30T15:14:11.073Z,88.52
2023-03-30T15:16:39.479Z,88.10
2023-03-30T15:19:14.405Z,87.71
2023-03-30T15:21:43.222Z,86.72
2023-03-30T15:24:17.551Z,87.34
2023-03-30T15:26:49.953Z,87.21
2023-03-30T15:29:19.974Z,86.88
2023-03-30T15:31:47.457Z,87.66
2023-03-30T15:34:16.290Z,90.60
2023-03-30T15:36:44.518Z,88.52
2023-03-30T15:39:21.130Z,86.73
2023-03-30T15:41:58.803Z,87.21
2023-03-30T15:44:26.269Z,86.44
2023-03-30T15:46:57.041Z,87.79
2023-03-30T15:49:31.370Z,85.34
2023-03-30T15:52:01.784Z,87.25
2023-03-30T15:54:34.766Z,83.66
2023-03-30T15:57:08.365Z,84.83
2023-03-30T15:59:41.344Z,84.79
2023-03-30T16:02:16.270Z,86.21
2023-03-30T16:04:44.247Z,83.98
2023-03-30T16:07:16.625Z,83.94
2023-03-30T16:09:44.212Z,83.55
2023-03-30T16:12:16.831Z,87.37
2023-03-30T16:14:44.545Z,84.94
2023-03-30T16:17:13.091Z,83.23
2023-03-30T16:19:41.206Z,83.76
2023-03-30T16:22:09.472Z,81.95
2023-03-30T16:24:37.390Z,83.68
2023-03-30T16:27:05.886Z,83.97
2023-03-30T16:29:35.295Z,80.79
2023-03-30T16:32:02.837Z,80.72
2023-03-30T16:34:30.413Z,82.50
2023-03-30T16:36:57.831Z,80.83
2023-03-30T16:39:27.184Z,80.66
2023-03-30T16:41:55.237Z,83.67
2023-03-30T16:44:24.736Z,85.34
2023-03-30T16:46:53.823Z,83.51
2023-03-30T16:49:22.883Z,83.46
2023-03-30T16:51:51.891Z,83.62
2023-03-30T16:54:30.285Z,83.44
2023-03-30T16:56:59.785Z,82.92
2023-03-30T16:59:30.241Z,85.06
2023-03-30T17:02:00.172Z,81.17
2023-03-30T17:04:27.860Z,82.51
2023-03-30T17:06:55.687Z,83.68
2023-03-30T17:09:23.443Z,86.13
2023-03-30T17:11:51.098Z,85.13
2023-03-30T17:14:20.108Z,82.83
2023-03-30T17:16:47.806Z,84.13
2023-03-30T17:19:16.697Z,84.00
2023-03-30T17:21:45.728Z,83.24
2023-03-30T17:24:15.086Z,84.96
2023-03-30T17:26:42.807Z,85.01
2023-03-30T17:29:10.725Z,85.29
2023-03-30T17:31:38.824Z,83.74
2023-03-30T17:34:07.056Z,84.41
2023-03-30T17:36:35.863Z,83.76
2023-03-30T17:39:04.856Z,85.47
2023-03-30T17:41:34.426Z,86.46
2023-03-30T17:44:01.880Z,87.27
2023-03-30T17:46:29.342Z,89.07
2023-03-30T17:48:58.732Z,86.92
2023-03-30T17:51:26.473Z,87.05
2023-03-30T17:53:55.274Z,89.22
2023-03-30T17:56:22.772Z,89.01
2023-03-30T17:58:51.810Z,88.45
2023-03-30T18:01:19.321Z,86.20
2023-03-30T18:03:46.894Z,87.34
2023-03-30T18:06:14.343Z,87.02
2023-03-30T18:08:42.944Z,87.09
2023-03-30T18:11:11.984Z,86.40
2023-03-30T18:13:39.571Z,86.70
2023-03-30T18:16:07.366Z,89.01
2023-03-30T18:18:34.907Z,89.22
2023-03-30T18:21:05.188Z,92.03
2023-03-30T18:23:34.402Z,91.16
2023-03-30T18:26:03.774Z,87.82
2023-03-30T18:28:32.980Z,88.20
2023-03-30T18:31:00.630Z,86.24
2023-03-30T18:33:28.491Z,89.56
2023-03-30T18:35:57.689Z,88.03
2023-03-30T18:38:25.914Z,87.22
2023-03-30T18:40:57.731Z,86.66
2023-03-30T18:43:26.999Z,87.40
2023-03-30T18:46:00.841Z,86.33
2023-03-30T18:48:29.486Z,86.84
2023-03-30T18:50:57.620Z,90.09
2023-03-30T18:53:26.886Z,90.50
2023-03-30T18:55:57.377Z,87.83
2023-03-30T18:58:27.124Z,87.19
2023-03-30T19:00:56.518Z,87.05
2023-03-30T19:03:24.845Z,85.95
2023-03-30T19:05:52.505Z,87.03
2023-03-30T19:08:21.910Z,92.47
2023-03-30T19:10:52.120Z,87.29
2023-03-30T19:13:22.062Z,88.65
2023-03-30T19:15:50.753Z,88.13
2023-03-30T19:18:20.023Z,86.72
2023-03-30T19:20:49.817Z,86.04
2023-03-30T19:23:18.654Z,88.68
2023-03-30T19:25:46.624Z,88.38
2023-03-30T19:28:14.975Z,89.28
2023-03-30T19:30:43.304Z,90.44
2023-03-30T19:33:15.164Z,91.46
2023-03-30T19:35:45.424Z,91.84
2023-03-30T19:38:13.217Z,91.72
2023-03-30T19:40:41.373Z,91.82
2023-03-30T19:43:09.355Z,92.13
2023-03-30T19:45:38.574Z,91.84
2023-03-30T19:48:06.417Z,91.06
2023-03-30T19:50:34.043Z,89.80
2023-03-30T19:53:02.838Z,86.61
2023-03-30T19:55:30.589Z,84.20
2023-03-30T19:57:58.108Z,84.26
2023-03-30T20:00:25.651Z,83.33
2023-03-30T20:02:55.268Z,83.19
2023-03-30T20:05:24.677Z,83.80
2023-03-30T20:07:52.721Z,84.99
2023-03-30T20:10:23.741Z,84.18
2023-03-30T20:12:52.026Z,83.65
2023-03-30T20:15:21.209Z,83.44
2023-03-30T20:17:48.690Z,84.32
2023-03-30T20:20:25.064Z,86.33
2023-03-30T20:22:56.093Z,86.34
2023-03-30T20:25:25.473Z,86.64
2023-03-30T20:27:53.395Z,87.20
2023-03-30T20:30:21.438Z,86.22
2023-03-30T20:33:03.911Z,86.65
2023-03-30T20:35:34.178Z,87.49
2023-03-30T20:38:04.825Z,86.90
2023-03-30T20:40:33.705Z,86.07
2023-03-30T20:43:02.161Z,85.45
2023-03-30T20:45:30.514Z,87.67
2023-03-30T20:47:58.253Z,87.49
2023-03-30T20:50:25.754Z,86.28
2023-03-30T20:52:53.800Z,88.04
2023-03-30T20:55:21.332Z,86.27
2023-03-30T20:57:50.103Z,85.76
2023-03-30T21:00:18.764Z,84.66
2023-03-30T21:02:46.664Z,85.03
2023-03-30T21:05:14.109Z,86.36
2023-03-30T21:07:46.789Z,84.70
2023-03-30T21:10:16.233Z,84.06
2023-03-30T21:12:43.668Z,84.34
2023-03-30T21:15:12.915Z,85.50
2023-03-30T21:17:40.462Z,84.10
2023-03-30T21:20:10.959Z,87.24
2023-03-30T21:22:38.446Z,86.47
2023-03-30T21:25:06.799Z,86.53
2023-03-30T21:27:34.681Z,85.11
2023-03-30T21:30:02.637Z,83.66
2023-03-30T21:32:31.919Z,84.10
2023-03-30T21:34:59.478Z,83.12
2023-03-30T21:37:27.123Z,84.27
2023-03-30T21:39:54.768Z,82.99
2023-03-30T21:42:22.283Z,84.14
2023-03-30T21:44:49.732Z,84.71
2023-03-30T21:47:17.150Z,82.78
2023-03-30T21:49:45.984Z,81.91
2023-03-30T21:52:13.553Z,81.79
2023-03-30T21:54:40.993Z,81.98
2023-03-30T21:57:08.526Z,81.66
2023-03-30T21:59:36.031Z,81.46
2023-03-30T22:02:03.757Z,82.34
2023-03-30T22:04:31.204Z,82.40
2023-03-30T22:06:59.949Z,82.47
2023-03-30T22:09:27.406Z,83.08
2023-03-30T22:11:55.483Z,86.01
2023-03-30T22:14:23.560Z,86.47
2023-03-30T22:16:50.996Z,84.54
2023-03-30T22:19:18.946Z,82.13
2023-03-30T22:21:46.477Z,82.36
2023-03-30T22:24:15.373Z,83.12
2023-03-30T22:26:42.823Z,83.52
2023-03-30T22:29:10.249Z,83.47
2023-03-30T22:31:37.726Z,85.06
2023-03-30T22:34:05.573Z,84.24
2023-03-30T22:36:33.224Z,83.12
2023-03-30T22:39:02.333Z,85.17
2023-03-30T22:41:31.698Z,84.28
2023-03-30T22:43:59.440Z,89.52
2023-03-30T22:46:28.041Z,88.22
2023-03-30T22:48:56.382Z,84.71
2023-03-30T22:51:27.157Z,79.86
2023-03-30T22:53:57.706Z,82.23
2023-03-30T22:56:25.732Z,79.79
2023-03-30T22:58:54.557Z,81.02
2023-03-30T23:01:22.223Z,82.45
2023-03-30T23:03:50.380Z,81.74
2023-03-30T23:06:19.145Z,81.42
2023-03-30T23:08:48.369Z,81.53
2023-03-30T23:11:16.352Z,82.30
2023-03-30T23:13:43.914Z,80.78
2023-03-30T23:16:12.802Z,81.17
2023-03-30T23:18:40.916Z,80.65
2023-03-30T23:21:11.221Z,85.26
2023-03-30T23:23:39.513Z,88.07
2023-03-30T23:26:09.872Z,87.04
2023-03-30T23:28:39.014Z,84.09
2023-03-30T23:31:10.769Z,82.62
2023-03-30T23:33:39.778Z,83.48
2023-03-30T23:36:08.551Z,82.38
2023-03-30T23:38:37.359Z,83.41
2023-03-30T23:41:06.021Z,87.83
2023-03-30T23:43:33.443Z,83.21
2023-03-30T23:46:00.950Z,82.48
2023-03-30T23:48:28.435Z,81.76
2023-03-30T23:50:59.090Z,82.45
2023-03-30T23:53:26.969Z,81.63
2023-03-30T23:55:54.900Z,85.38
2023-03-30T23:58:22.709Z,87.97
